Flight Track Log - Related Links

Times and Time Zones

All times are in EDT time to prevent confusion due to time zone crossing. See the ASQ6115 flight status page for this flight to view local times or setup timezone preferences in your user account.

Time Position Orientation Groundspeed Altitude Reporting Facility
EDT Latitude Longitude Course Direction KTS MPH feet Rate Location/Type
Sun 08:02:55 PM 41.9667 -87.8333 90° East 179 206 3,200  Level Chicago TRACON
Sun 08:03:55 PM 41.9667 -87.7667 90° East 230 265 5,000 1,550 Climbing Chicago TRACON
Sun 08:04:55 PM 41.9833 -87.6667 77° East 280 322 6,300 1,842 Climbing Chicago TRACON
Sun 08:05:49 PM 42.0167 -87.5833 62° Northeast 283 326 8,500 1,821 Climbing Chicago TRACON
Sun 08:07:43 PM 42.1117 -87.7011 317° Northwest 296 341 11,400 1,636 Climbing Chicago Center
Sun 08:08:45 PM 42.1986 -87.7036 359° North 316 364 13,300 1,258 Climbing Chicago Center
Sun 08:09:47 PM 42.2914 -87.7847 327° Northwest 338 389 14,000 339 Climbing Chicago Center
Sun 08:10:49 PM 42.3778 -87.8681 325° Northwest 378 435 14,000  Level Chicago Center
Sun 08:11:51 PM 42.4667 -87.9492 326° Northwest 385 443 14,000  Level Chicago Center
Sun 08:12:53 PM 42.5525 -88.0306 325° Northwest 379 436 14,000  Level Chicago Center
Sun 08:13:55 PM 42.6389 -88.1086 326° Northwest 373 429 14,000  Level Chicago Center
Sun 08:14:57 PM 42.7406 -88.2019 326° Northwest 375 432 14,000  Level Chicago Center
Sun 08:15:59 PM 42.8072 -88.3064 311° West 372 428 14,000 48 Level Chicago Center
Sun 08:17:01 PM 42.8486 -88.4319 294° West 365 420 14,100 48 Climbing Chicago Center
Sun 08:18:03 PM 42.8906 -88.5606 294° West 368 423 14,100  Level Chicago Center
Sun 08:19:05 PM 42.9336 -88.6933 294° West 377 434 14,100 -387 Level Chicago Center
Sun 08:20:07 PM 42.9739 -88.8194 294° West 364 419 13,300 -919 Descending Chicago Center
Sun 08:21:09 PM 43.0267 -88.9178 306° West 327 376 12,200 -1,210 Descending Chicago Center
Sun 08:22:11 PM 43.0931 -89.0167 313° West 302 348 10,800 -1,742 Descending Chicago Center
Sun 08:23:13 PM 43.1447 -89.0914 313° West 273 314 8,600 -2,195 Descending Chicago Center
Sun 08:24:14 PM 43.1889 -89.1678 308° West 265 305 6,300 -2,262 Descending Chicago Center

Login

Don't have an account? Register now (free) for customized features, flight alerts, and more!